Time;durP1;ratioP1;P1;durP2;ratioP2;P2;SDS_P1;SDS_P2;PMS_P1;PMS_P2;Temp;Humidity;BMP_temperature;BMP_pressure;BME280_temperature;BME280_humidity;BME280_pressure;Samples;Min_cycle;Max_cycle;Signal;HPM_P1;HPM_P2
2021/01/06 00:01:06;;;;;;;29.25;19.30;;;3.50;99.90;;;;;;6198144;28;20050;-79
2021/01/06 00:04:07;;;;;;;30.58;20.63;;;3.50;99.90;;;;;;6198808;28;20074;-79
2021/01/06 00:07:09;;;;;;;24.63;18.83;;;3.40;99.90;;;;;;6198174;28;20204;-79
2021/01/06 00:10:12;;;;;;;32.08;18.75;;;3.30;99.90;;;;;;6197934;28;20420;-79
2021/01/06 00:13:17;;;;;;;26.48;19.73;;;3.30;99.90;;;;;;6198773;28;20044;-79
2021/01/06 00:16:18;;;;;;;26.42;18.48;;;3.30;99.90;;;;;;6198836;28;20055;-79
2021/01/06 00:19:20;;;;;;;28.33;19.20;;;3.30;99.90;;;;;;6198188;28;20062;-79
2021/01/06 00:22:22;;;;;;;28.25;19.63;;;3.30;99.90;;;;;;6198186;28;20050;-79
2021/01/06 00:25:25;;;;;;;26.00;19.02;;;3.30;99.90;;;;;;6198389;28;20042;-80
2021/01/06 00:28:26;;;;;;;30.83;18.50;;;3.30;99.90;;;;;;6198587;28;20061;-79
2021/01/06 00:31:28;;;;;;;29.13;19.55;;;3.20;99.90;;;;;;6198346;28;20498;-78
2021/01/06 00:34:29;;;;;;;28.98;20.75;;;3.20;99.90;;;;;;6198178;28;20632;-79
2021/01/06 00:37:31;;;;;;;30.10;19.05;;;3.20;99.90;;;;;;6198198;28;20097;-79
2021/01/06 00:40:35;;;;;;;33.67;19.02;;;3.20;99.90;;;;;;6198855;28;20058;-79
2021/01/06 00:43:36;;;;;;;27.70;18.17;;;3.20;99.90;;;;;;6198447;28;20512;-79
2021/01/06 00:46:37;;;;;;;30.92;20.58;;;3.20;99.90;;;;;;6198420;28;20443;-79
2021/01/06 00:49:39;;;;;;;33.00;19.80;;;3.10;99.90;;;;;;6198376;28;20054;-80
2021/01/06 00:52:41;;;;;;;32.42;21.27;;;3.10;99.90;;;;;;6198609;28;20070;-79
2021/01/06 00:55:43;;;;;;;34.45;21.48;;;3.10;99.90;;;;;;6198938;28;20089;-78
2021/01/06 00:58:45;;;;;;;40.13;22.15;;;3.00;99.90;;;;;;6211102;23;20141;-76
2021/01/06 01:01:46;;;;;;;39.20;20.75;;;3.00;99.90;;;;;;6197809;28;20039;-77
2021/01/06 01:04:47;;;;;;;40.58;23.75;;;3.00;99.90;;;;;;6198099;28;20077;-77
2021/01/06 01:07:50;;;;;;;41.50;22.88;;;3.00;99.90;;;;;;6200203;28;20054;-75
2021/01/06 01:10:57;;;;;;;41.50;23.63;;;3.00;99.90;;;;;;6202276;28;20129;-77
2021/01/06 01:13:58;;;;;;;43.28;23.65;;;3.00;99.90;;;;;;6188843;28;20071;-77
2021/01/06 01:17:02;;;;;;;41.63;24.70;;;3.00;99.90;;;;;;6177621;28;20382;-76
2021/01/06 01:20:04;;;;;;;44.28;24.70;;;3.00;99.90;;;;;;6178378;28;20058;-77
2021/01/06 01:23:07;;;;;;;50.33;25.98;;;3.00;99.90;;;;;;6177788;28;20043;-77
2021/01/06 01:26:10;;;;;;;46.65;25.60;;;3.00;99.90;;;;;;6191324;28;20108;-76
2021/01/06 01:29:11;;;;;;;51.45;25.35;;;2.90;99.90;;;;;;6195954;28;20042;-76
2021/01/06 01:32:13;;;;;;;44.75;25.90;;;3.00;99.90;;;;;;6177796;28;20051;-76
2021/01/06 01:35:16;;;;;;;42.22;24.30;;;3.00;99.90;;;;;;6177565;28;20074;-77
2021/01/06 01:38:21;;;;;;;40.17;23.63;;;3.00;99.90;;;;;;6177317;28;20051;-76
2021/01/06 01:41:26;;;;;;;50.72;26.70;;;3.00;99.90;;;;;;6184866;28;20043;-77
2021/01/06 01:44:28;;;;;;;42.75;25.80;;;3.00;99.90;;;;;;6201137;28;20050;-76
2021/01/06 01:47:40;;;;;;;46.47;25.23;;;3.00;99.90;;;;;;6177420;28;20046;-77
2021/01/06 01:50:42;;;;;;;48.55;26.33;;;2.90;99.90;;;;;;6176979;28;20051;-77
2021/01/06 01:53:50;;;;;;;43.33;24.10;;;2.90;99.90;;;;;;6177265;28;20125;-76
2021/01/06 01:56:56;;;;;;;53.50;27.35;;;3.00;99.90;;;;;;6180015;28;20050;-77
2021/01/06 02:00:03;;;;;;;55.10;29.67;;;3.00;99.90;;;;;;6201582;28;20047;-76
2021/01/06 02:03:14;;;;;;;56.70;26.10;;;2.90;99.90;;;;;;6179438;28;20047;-76
2021/01/06 02:06:23;;;;;;;52.58;26.50;;;3.00;99.90;;;;;;6176493;28;20592;-77
2021/01/06 02:09:30;;;;;;;51.42;30.17;;;2.90;99.90;;;;;;6176772;28;20122;-76
2021/01/06 02:12:38;;;;;;;52.97;26.83;;;2.90;99.90;;;;;;6177078;28;20057;-76
2021/01/06 02:15:41;;;;;;;;;;;2.80;99.90;;;;;;6201271;28;20133;-77
2021/01/06 02:18:42;;;;;;;52.90;25.83;;;2.80;99.90;;;;;;6181621;28;19981;-76
2021/01/06 02:21:44;;;;;;;53.55;28.50;;;2.70;99.90;;;;;;6176309;28;20051;-77
2021/01/06 02:24:48;;;;;;;58.42;28.65;;;2.70;99.90;;;;;;6176271;28;20082;-76
2021/01/06 02:27:49;;;;;;;58.92;27.70;;;2.70;99.90;;;;;;6176648;28;20053;-77
2021/01/06 02:30:51;;;;;;;55.40;29.87;;;2.80;99.90;;;;;;6195508;28;20048;-76
2021/01/06 02:33:53;;;;;;;54.87;27.77;;;2.80;99.90;;;;;;6200042;28;20047;-77
2021/01/06 02:36:55;;;;;;;62.53;27.40;;;2.80;99.90;;;;;;6199858;28;20502;-77
2021/01/06 02:39:57;;;;;;;56.23;27.50;;;2.80;99.90;;;;;;6199984;28;20077;-76
2021/01/06 02:42:58;;;;;;;63.17;28.93;;;2.70;99.90;;;;;;6199790;28;20133;-76
2021/01/06 02:46:00;;;;;;;62.13;30.17;;;2.70;99.90;;;;;;6199944;28;20504;-76
2021/01/06 02:49:02;;;;;;;60.97;29.73;;;2.80;99.90;;;;;;6199700;28;20049;-76
2021/01/06 02:52:11;;;;;;;54.20;26.38;;;2.80;99.90;;;;;;6200011;28;20559;-77
2021/01/06 02:55:14;;;;;;;55.17;26.77;;;2.80;99.90;;;;;;6199822;28;20069;-77
2021/01/06 02:58:21;;;;;;;55.77;27.63;;;2.80;99.90;;;;;;6199615;28;20133;-77
2021/01/06 03:01:26;;;;;;;50.33;24.42;;;2.80;99.90;;;;;;6200233;28;20055;-77
2021/01/06 03:04:35;;;;;;;52.70;26.00;;;2.80;99.90;;;;;;6199539;28;20412;-77
2021/01/06 03:07:38;;;;;;;53.27;25.07;;;2.80;99.90;;;;;;6199977;28;20100;-77
2021/01/06 03:10:39;;;;;;;60.70;27.47;;;2.80;99.90;;;;;;6199683;28;20136;-77
2021/01/06 03:13:41;;;;;;;48.73;24.80;;;2.70;99.90;;;;;;6199183;28;20045;-77
2021/01/06 03:16:42;;;;;;;47.27;24.93;;;2.70;99.90;;;;;;6199126;28;20061;-77
2021/01/06 03:19:47;;;;;;;46.73;24.17;;;2.70;99.90;;;;;;6200110;28;20110;-77
2021/01/06 03:22:56;;;;;;;56.23;26.47;;;2.70;99.90;;;;;;6198721;28;20053;-77
2021/01/06 03:25:59;;;;;;;43.23;24.33;;;2.70;99.90;;;;;;6199031;28;20050;-77
2021/01/06 03:29:01;;;;;;;46.03;24.37;;;2.70;99.90;;;;;;6198946;28;20133;-77
2021/01/06 03:32:07;;;;;;;54.97;23.47;;;2.70;99.90;;;;;;6199592;28;20046;-77
2021/01/06 03:35:15;;;;;;;49.90;24.97;;;2.70;99.90;;;;;;6199206;28;20050;-77
2021/01/06 03:38:26;;;;;;;55.73;24.77;;;2.70;99.90;;;;;;6198724;28;20050;-77
2021/01/06 03:41:30;;;;;;;49.77;25.60;;;2.70;99.90;;;;;;6198843;28;20046;-77
2021/01/06 03:44:32;;;;;;;59.28;25.45;;;2.70;99.90;;;;;;6198638;28;20050;-77
2021/01/06 03:47:40;;;;;;;55.27;24.43;;;2.70;99.90;;;;;;6198953;28;20054;-77
2021/01/06 03:50:43;;;;;;;57.90;26.87;;;2.60;99.90;;;;;;6198718;28;20057;-76
2021/01/06 03:53:48;;;;;;;56.27;25.90;;;2.70;99.90;;;;;;6198264;28;20177;-77
2021/01/06 03:56:51;;;;;;;46.27;24.87;;;2.60;99.90;;;;;;6198402;28;20042;-77
2021/01/06 03:59:55;;;;;;;45.53;24.07;;;2.60;99.90;;;;;;6200178;28;20057;-76
2021/01/06 04:02:58;;;;;;;56.40;25.53;;;2.70;99.90;;;;;;6200560;28;20042;-77
2021/01/06 04:06:13;;;;;;;48.40;24.67;;;2.70;99.90;;;;;;6198695;28;20046;-77
2021/01/06 04:09:26;;;;;;;54.77;23.80;;;2.70;99.90;;;;;;6198365;28;20042;-76
2021/01/06 04:12:28;;;;;;;55.37;26.07;;;2.80;99.90;;;;;;6197829;28;20149;-77
2021/01/06 04:15:29;;;;;;;57.43;27.97;;;2.80;99.90;;;;;;6198535;28;20054;-77
2021/01/06 04:18:30;;;;;;;54.97;24.27;;;2.80;99.90;;;;;;6197729;28;20050;-77
2021/01/06 04:21:32;;;;;;;55.00;25.20;;;2.80;99.90;;;;;;6197640;28;20134;-77
2021/01/06 04:24:34;;;;;;;51.03;27.52;;;2.80;99.90;;;;;;6198918;28;20057;-76
2021/01/06 04:27:35;;;;;;;54.77;25.50;;;2.80;99.90;;;;;;6198644;28;20054;-76
2021/01/06 04:30:38;;;;;;;48.97;24.93;;;2.80;99.90;;;;;;6198139;28;20181;-77
2021/01/06 04:33:42;;;;;;;52.00;24.83;;;2.80;99.90;;;;;;6197578;28;20138;-76
2021/01/06 04:36:43;;;;;;;57.83;26.93;;;2.80;99.90;;;;;;6197914;28;20140;-76
2021/01/06 04:39:45;;;;;;;54.63;26.47;;;2.80;99.90;;;;;;6198142;28;20065;-76
2021/01/06 04:42:47;;;;;;;51.60;26.13;;;2.80;99.90;;;;;;6200513;28;20055;-76
2021/01/06 04:46:00;;;;;;;51.03;24.63;;;2.90;99.90;;;;;;6202600;28;20050;-76
2021/01/06 04:49:12;;;;;;;55.07;25.37;;;2.80;99.90;;;;;;6202775;28;20161;-76
2021/01/06 04:52:32;;;;;;;50.92;27.55;;;2.90;99.90;;;;;;6202733;28;20081;-76
2021/01/06 04:55:43;;;;;;;48.53;24.92;;;2.90;99.90;;;;;;6179067;28;20123;-77
2021/01/06 04:58:57;;;;;;;56.33;24.67;;;2.80;99.90;;;;;;6178436;28;20757;-77
2021/01/06 05:02:22;;;;;;;48.97;23.30;;;2.80;99.90;;;;;;6177861;28;20098;-77
2021/01/06 05:05:38;;;;;;;49.53;24.33;;;2.80;99.90;;;;;;6177665;28;20552;-76
2021/01/06 05:08:42;;;;;;;57.80;25.63;;;2.80;99.90;;;;;;6177396;28;20560;-76
2021/01/06 05:11:56;;;;;;;48.67;23.60;;;2.80;99.90;;;;;;6178409;28;20082;-77
2021/01/06 05:15:34;;;;;;;58.50;28.20;;;2.80;99.90;;;;;;6177545;28;20527;-77
2021/01/06 05:18:35;;;;;;;54.70;25.73;;;2.80;99.90;;;;;;6177624;28;20058;-77
2021/01/06 05:21:37;;;;;;;53.15;24.77;;;2.80;99.90;;;;;;6177037;28;20042;-76
2021/01/06 05:24:41;;;;;;;58.92;27.15;;;2.80;99.90;;;;;;6177814;28;20134;-77
2021/01/06 05:27:46;;;;;;;49.50;24.63;;;2.80;99.90;;;;;;6177722;28;20064;-77
2021/01/06 05:30:52;;;;;;;60.37;25.63;;;2.80;99.90;;;;;;6177345;28;20119;-77
2021/01/06 05:33:54;;;;;;;51.17;24.10;;;2.80;99.90;;;;;;6176898;28;20412;-76
2021/01/06 05:36:56;;;;;;;47.83;24.57;;;2.80;99.90;;;;;;6177139;28;20560;-77
2021/01/06 05:40:03;;;;;;;48.83;24.60;;;2.80;99.90;;;;;;6177649;28;20054;-77
2021/01/06 05:43:07;;;;;;;53.15;27.55;;;2.80;99.90;;;;;;6176766;28;20101;-77
2021/01/06 05:46:14;;;;;;;45.80;23.50;;;2.90;99.90;;;;;;6176851;28;20507;-77
2021/01/06 05:49:22;;;;;;;44.73;24.20;;;2.90;99.90;;;;;;6176801;28;20058;-77
2021/01/06 05:52:29;;;;;;;39.00;22.15;;;2.90;99.90;;;;;;6177132;28;20062;-77
2021/01/06 05:55:35;;;;;;;39.42;21.13;;;2.90;99.90;;;;;;6175996;28;20055;-77
2021/01/06 05:58:48;;;;;;;44.40;22.98;;;2.90;99.90;;;;;;6176523;28;20051;-77
2021/01/06 06:01:56;;;;;;;48.00;22.63;;;2.90;99.90;;;;;;6176831;28;20054;-77
2021/01/06 06:05:16;;;;;;;50.47;22.67;;;2.90;99.90;;;;;;6176161;28;20038;-77
2021/01/06 06:08:36;;;;;;;54.33;24.45;;;2.90;99.90;;;;;;6177055;28;20051;-76
2021/01/06 06:12:11;;;;;;;42.97;23.60;;;2.90;99.90;;;;;;6176766;28;20101;-76
2021/01/06 06:15:22;;;;;;;49.33;22.27;;;2.90;99.90;;;;;;6176325;28;20049;-76
2021/01/06 06:18:54;;;;;;;45.05;21.58;;;2.90;99.90;;;;;;6176182;28;20535;-77
2021/01/06 06:22:15;;;;;;;39.47;21.25;;;2.90;99.90;;;;;;6176232;28;20083;-77
2021/01/06 06:25:21;;;;;;;48.80;21.40;;;2.90;99.90;;;;;;6176112;28;20053;-77
2021/01/06 06:28:28;;;;;;;41.95;19.95;;;2.90;99.90;;;;;;6176409;28;20060;-77
2021/01/06 06:31:33;;;;;;;43.23;22.70;;;2.90;99.90;;;;;;6176167;28;20544;-77
2021/01/06 06:34:37;;;;;;;43.43;20.73;;;2.80;99.90;;;;;;6176724;28;20053;-78
2021/01/06 06:37:48;;;;;;;41.10;21.75;;;2.90;99.90;;;;;;6176526;28;20508;-77
2021/01/06 06:40:54;;;;;;;39.60;21.20;;;2.90;99.90;;;;;;6176441;28;20042;-77
2021/01/06 06:44:28;;;;;;;44.10;21.27;;;2.90;99.90;;;;;;6176461;28;20093;-77
2021/01/06 06:47:54;;;;;;;49.00;22.27;;;2.90;99.90;;;;;;6176102;28;20051;-76
2021/01/06 06:51:05;;;;;;;43.87;20.83;;;2.90;99.90;;;;;;6175939;28;20053;-77
2021/01/06 06:54:12;;;;;;;39.70;21.33;;;2.90;99.90;;;;;;6175712;28;20049;-77
2021/01/06 06:57:20;;;;;;;46.57;22.00;;;2.90;99.90;;;;;;6187026;23;20059;-78
2021/01/06 07:00:24;;;;;;;42.87;22.10;;;2.90;99.90;;;;;;6165992;29;20086;-80
2021/01/06 07:03:29;;;;;;;44.15;20.73;;;2.90;99.90;;;;;;6183208;28;20051;-80
2021/01/06 07:06:32;;;;;;;40.87;22.33;;;2.90;99.90;;;;;;6165682;28;20043;-80
2021/01/06 07:09:37;;;;;;;40.60;20.97;;;2.80;99.90;;;;;;6175034;28;20046;-78
2021/01/06 07:12:40;;;;;;;35.72;19.13;;;2.90;99.90;;;;;;6185381;28;20065;-79
2021/01/06 07:15:49;;;;;;;37.93;19.70;;;2.80;99.90;;;;;;6164398;29;20114;-79
2021/01/06 07:18:53;;;;;;;47.10;20.95;;;2.90;99.90;;;;;;6162210;28;20047;-79
2021/01/06 07:22:03;;;;;;;39.40;19.73;;;2.90;99.90;;;;;;6161256;29;20086;-80
2021/01/06 07:25:21;;;;;;;51.63;21.45;;;2.80;99.90;;;;;;6176145;28;20066;-79
2021/01/06 07:28:23;;;;;;;47.65;24.05;;;2.90;99.90;;;;;;6212670;28;20161;-80
2021/01/06 07:31:27;;;;;;;44.97;21.00;;;3.00;99.90;;;;;;6227614;28;20057;-81
2021/01/06 07:34:40;;;;;;;47.87;21.57;;;2.90;99.90;;;;;;6212673;28;20074;-81
2021/01/06 07:37:45;;;;;;;45.83;27.27;;;2.90;99.90;;;;;;6209227;28;20049;-79
2021/01/06 07:40:55;;;;;;;48.10;24.53;;;2.90;99.90;;;;;;6211056;28;20042;-79
2021/01/06 07:44:01;;;;;;;41.83;23.87;;;2.90;99.90;;;;;;6211212;28;20484;-79
2021/01/06 07:47:13;;;;;;;39.70;22.25;;;2.80;99.90;;;;;;6210463;28;20054;-80
2021/01/06 07:50:22;;;;;;;50.42;25.15;;;2.80;99.90;;;;;;6210191;28;20050;-80
2021/01/06 07:53:27;;;;;;;52.30;24.87;;;2.80;99.90;;;;;;6209987;28;20049;-79
2021/01/06 07:56:33;;;;;;;52.50;24.60;;;2.80;99.90;;;;;;6212412;28;20066;-79
2021/01/06 07:59:45;;;;;;;51.00;24.95;;;2.80;99.90;;;;;;6210843;28;20054;-78
2021/01/06 08:02:55;;;;;;;46.83;22.57;;;2.80;99.90;;;;;;6208940;28;20046;-79
2021/01/06 08:05:59;;;;;;;42.72;23.85;;;2.80;99.90;;;;;;6210064;28;20132;-79
2021/01/06 08:09:01;;;;;;;51.63;23.58;;;2.90;99.90;;;;;;6206439;28;20050;-80
2021/01/06 08:12:13;;;;;;;41.63;20.50;;;2.90;99.90;;;;;;6205101;28;20065;-80
2021/01/06 08:15:24;;;;;;;52.00;23.40;;;2.90;99.90;;;;;;6209172;28;20070;-79
2021/01/06 08:18:33;;;;;;;52.60;25.33;;;2.90;99.90;;;;;;6208413;28;20047;-79
2021/01/06 08:21:45;;;;;;;43.35;22.67;;;2.90;99.90;;;;;;6202418;28;20062;-79
2021/01/06 08:24:51;;;;;;;48.07;24.23;;;2.90;99.90;;;;;;6203055;28;20082;-79
2021/01/06 08:27:52;;;;;;;44.60;22.63;;;2.90;99.90;;;;;;6204311;28;20057;-79
2021/01/06 08:31:06;;;;;;;44.65;21.58;;;3.00;99.90;;;;;;6206293;28;20047;-79
2021/01/06 08:34:20;;;;;;;37.42;20.48;;;3.00;99.90;;;;;;6202497;28;20102;-80
2021/01/06 08:37:25;;;;;;;44.10;23.55;;;3.00;99.90;;;;;;6207725;28;20046;-79
2021/01/06 08:40:31;;;;;;;44.70;23.45;;;3.00;99.90;;;;;;6203919;28;20046;-79
2021/01/06 08:43:37;;;;;;;44.05;23.77;;;3.00;99.90;;;;;;6200027;28;20070;-80
2021/01/06 08:46:40;;;;;;;41.90;22.40;;;3.00;99.90;;;;;;6201974;28;20046;-79
2021/01/06 08:49:44;;;;;;;39.88;20.73;;;3.00;99.90;;;;;;6198129;28;20605;-79
2021/01/06 08:52:50;;;;;;;39.58;20.27;;;3.00;99.90;;;;;;6201105;28;20125;-79
2021/01/06 08:55:56;;;;;;;46.35;22.30;;;3.00;99.90;;;;;;6204986;28;20053;-79
2021/01/06 08:58:58;;;;;;;38.80;21.10;;;3.00;99.90;;;;;;6195057;28;20070;-79
2021/01/06 09:02:02;;;;;;;43.95;22.55;;;3.10;99.90;;;;;;6202075;28;20050;-80
2021/01/06 09:05:03;;;;;;;36.87;19.60;;;3.10;99.90;;;;;;6199403;28;20420;-79
2021/01/06 09:08:11;;;;;;;37.55;19.60;;;3.10;99.90;;;;;;6204298;28;20117;-79
2021/01/06 09:11:24;;;;;;;40.75;19.65;;;3.10;99.90;;;;;;6200951;28;20086;-79
2021/01/06 09:14:31;;;;;;;40.67;21.17;;;3.00;99.90;;;;;;6203760;28;20088;-80
2021/01/06 09:17:39;;;;;;;40.67;21.15;;;3.00;99.90;;;;;;6204709;28;20066;-79
2021/01/06 09:21:04;;;;;;;46.55;21.25;;;3.00;99.90;;;;;;6200249;28;20049;-80
2021/01/06 09:24:12;;;;;;;45.97;20.57;;;3.10;99.90;;;;;;6202687;28;20125;-80
2021/01/06 09:27:28;;;;;;;44.55;23.02;;;3.20;99.90;;;;;;6202963;28;20877;-80
2021/01/06 09:30:34;;;;;;;50.63;26.05;;;3.20;99.90;;;;;;6206497;28;20061;-80
2021/01/06 09:33:40;;;;;;;51.95;24.38;;;3.30;99.90;;;;;;6208665;28;20047;-81
2021/01/06 09:36:43;;;;;;;52.05;28.48;;;3.30;99.90;;;;;;6203317;28;20453;-80
2021/01/06 09:39:47;;;;;;;52.83;27.60;;;3.30;99.90;;;;;;6209581;28;20058;-79
2021/01/06 09:42:56;;;;;;;40.95;22.38;;;3.40;99.90;;;;;;6208105;28;20097;-80
2021/01/06 09:45:57;;;;;;;45.80;25.10;;;3.40;99.90;;;;;;6204869;28;20073;-79
2021/01/06 09:49:03;;;;;;;43.00;23.73;;;3.40;99.90;;;;;;6207603;28;20047;-79
2021/01/06 09:52:08;;;;;;;45.03;25.58;;;3.40;99.90;;;;;;6202559;28;20050;-79
2021/01/06 09:55:15;;;;;;;40.42;24.00;;;3.40;99.90;;;;;;6206277;28;20062;-80
2021/01/06 09:58:30;;;;;;;65.47;31.02;;;3.40;99.90;;;;;;6209012;28;20105;-80
2021/01/06 10:01:36;;;;;;;43.47;23.77;;;3.40;99.90;;;;;;6204693;28;20046;-80
2021/01/06 10:04:41;;;;;;;36.38;20.52;;;3.40;99.90;;;;;;6210132;28;20423;-80
2021/01/06 10:07:48;;;;;;;42.67;22.38;;;3.40;99.90;;;;;;6208502;28;20575;-78
2021/01/06 10:10:54;;;;;;;41.17;22.83;;;3.40;99.90;;;;;;6206565;28;20081;-80
2021/01/06 10:14:30;;;;;;;38.60;21.67;;;3.40;99.90;;;;;;6205974;28;20038;-79
2021/01/06 10:17:39;;;;;;;39.78;20.60;;;3.40;99.90;;;;;;6205356;28;20530;-80
2021/01/06 10:20:48;;;;;;;46.60;22.17;;;3.40;99.90;;;;;;6208388;28;20070;-79
2021/01/06 10:24:02;;;;;;;56.75;25.85;;;3.50;99.90;;;;;;6201977;28;20051;-79
2021/01/06 10:27:19;;;;;;;47.22;25.13;;;3.60;99.90;;;;;;6207958;28;20046;-79
2021/01/06 10:30:23;;;;;;;55.83;26.63;;;3.80;99.90;;;;;;6207186;28;20051;-79
2021/01/06 10:33:24;;;;;;;39.42;21.92;;;3.90;99.90;;;;;;6209336;28;20046;-79
2021/01/06 10:36:54;;;;;;;34.03;22.52;;;3.90;99.90;;;;;;6204220;28;20042;-80
2021/01/06 10:39:58;;;;;;;37.95;20.15;;;3.90;99.90;;;;;;6210264;28;20046;-79
2021/01/06 10:43:50;;;;;;;41.10;22.00;;;3.90;99.90;;;;;;6204853;28;20046;-79
2021/01/06 10:46:52;;;;;;;34.47;19.98;;;4.20;99.90;;;;;;6206603;28;20047;-79
2021/01/06 10:50:00;;;;;;;27.90;18.75;;;4.10;99.90;;;;;;6203415;28;20748;-79
2021/01/06 10:53:07;;;;;;;59.10;27.98;;;4.10;99.90;;;;;;6207537;28;20053;-80
2021/01/06 10:56:12;;;;;;;68.25;32.75;;;4.20;99.90;;;;;;6209277;28;20047;-79
2021/01/06 10:59:16;;;;;;;69.75;36.67;;;4.80;99.90;;;;;;6209402;28;20054;-78
2021/01/06 11:02:24;;;;;;;44.70;27.85;;;5.50;99.90;;;;;;6206788;28;20042;-80
2021/01/06 11:05:29;;;;;;;30.45;18.83;;;5.20;99.90;;;;;;6203320;28;20053;-82
2021/01/06 11:09:06;;;;;;;20.25;13.55;;;4.80;99.90;;;;;;6209715;28;20046;-80
2021/01/06 11:12:31;;;;;;;34.92;17.75;;;4.50;99.90;;;;;;6206503;28;20051;-79
2021/01/06 11:15:59;;;;;;;31.60;17.88;;;4.30;99.90;;;;;;6202929;28;20496;-79
2021/01/06 11:19:00;;;;;;;28.60;15.90;;;4.20;99.90;;;;;;6207121;28;20042;-81
2021/01/06 11:22:05;;;;;;;18.88;12.63;;;4.30;99.90;;;;;;6212055;28;20512;-79
2021/01/06 11:25:38;;;;;;;20.83;14.20;;;4.10;99.90;;;;;;6206664;28;20046;-78
2021/01/06 11:28:53;;;;;;;22.55;15.13;;;4.00;99.90;;;;;;6211252;28;20417;-80
2021/01/06 11:32:31;;;;;;;21.85;15.63;;;3.80;99.90;;;;;;6209049;28;20108;-78
2021/01/06 11:35:43;;;;;;;19.70;15.25;;;3.60;99.90;;;;;;6203157;28;20155;-79
2021/01/06 11:38:50;;;;;;;23.33;15.38;;;3.40;99.90;;;;;;6205183;28;20139;-79
2021/01/06 11:42:07;;;;;;;26.02;15.77;;;3.30;99.90;;;;;;6201050;28;20077;-78
2021/01/06 11:45:11;;;;;;;27.70;17.23;;;3.20;99.90;;;;;;6198642;28;20117;-78
2021/01/06 11:48:27;;;;;;;34.45;19.15;;;3.10;99.90;;;;;;6202566;28;20150;-81
2021/01/06 11:51:28;;;;;;;37.87;17.77;;;3.00;99.90;;;;;;6203896;28;20116;-79
2021/01/06 11:54:34;;;;;;;40.60;18.27;;;3.00;99.90;;;;;;6207592;28;20520;-78
2021/01/06 11:57:50;;;;;;;30.17;17.27;;;3.10;99.90;;;;;;6206859;28;20042;-79
2021/01/06 12:01:07;;;;;;;42.67;20.50;;;3.10;99.90;;;;;;6198966;28;20074;-79
2021/01/06 12:04:57;;;;;;;39.60;19.60;;;3.10;99.90;;;;;;6198407;28;20174;-79
2021/01/06 12:08:12;;;;;;;41.17;24.30;;;3.10;99.90;;;;;;6204845;28;20050;-79
2021/01/06 12:11:25;;;;;;;37.25;24.08;;;3.10;99.90;;;;;;6206017;28;20128;-79
2021/01/06 12:14:31;;;;;;;35.00;20.38;;;3.10;99.90;;;;;;6202202;28;20085;-78
2021/01/06 12:17:36;;;;;;;33.45;18.52;;;3.10;99.90;;;;;;6205812;28;20046;-79
2021/01/06 12:20:46;;;;;;;38.70;21.93;;;3.00;99.90;;;;;;6205264;28;20130;-78
2021/01/06 12:23:47;;;;;;;35.60;21.33;;;3.00;99.90;;;;;;6206014;28;20046;-79
2021/01/06 12:26:56;;;;;;;36.30;19.47;;;3.00;99.90;;;;;;6205907;28;20042;-79
2021/01/06 12:30:02;;;;;;;38.17;22.83;;;3.00;99.90;;;;;;6204599;28;20057;-80
2021/01/06 12:33:18;;;;;;;40.30;22.02;;;3.00;99.90;;;;;;6200801;28;20050;-79
2021/01/06 12:36:29;;;;;;;39.97;21.17;;;3.10;99.90;;;;;;6204711;28;20397;-79
2021/01/06 12:39:33;;;;;;;34.27;21.23;;;3.10;99.90;;;;;;6207033;28;20046;-79
2021/01/06 12:42:39;;;;;;;32.40;20.53;;;3.10;99.90;;;;;;6206485;28;20042;-79
2021/01/06 12:45:50;;;;;;;43.77;23.70;;;3.10;99.90;;;;;;6206289;28;20066;-79
2021/01/06 12:49:14;;;;;;;41.83;21.00;;;3.10;99.90;;;;;;6210231;28;20053;-78
2021/01/06 12:52:26;;;;;;;51.67;32.70;;;3.10;99.90;;;;;;6211057;28;20058;-79
2021/01/06 12:55:33;;;;;;;52.30;32.08;;;3.10;99.90;;;;;;6210728;28;20110;-81
2021/01/06 12:58:38;;;;;;;35.65;21.30;;;3.20;99.90;;;;;;6203124;28;20038;-80
2021/01/06 13:01:45;;;;;;;33.20;20.17;;;3.20;99.90;;;;;;6233819;22;20853;-79
2021/01/06 13:04:49;;;;;;;37.72;23.33;;;3.30;99.90;;;;;;6235481;28;20179;-79
2021/01/06 13:07:54;;;;;;;40.27;22.37;;;3.30;99.90;;;;;;6232640;28;20050;-78
2021/01/06 13:11:05;;;;;;;38.92;23.83;;;3.30;99.90;;;;;;6228431;28;20050;-78
2021/01/06 13:14:34;;;;;;;43.65;23.17;;;3.20;99.90;;;;;;6207270;28;20113;-79
2021/01/06 13:17:38;;;;;;;45.72;27.58;;;3.30;99.90;;;;;;6204368;28;20053;-80
2021/01/06 13:20:44;;;;;;;40.77;26.27;;;3.20;99.90;;;;;;6205093;28;20043;-77
2021/01/06 13:23:50;;;;;;;49.37;24.77;;;3.20;99.90;;;;;;6204598;28;20050;-80
2021/01/06 13:26:59;;;;;;;45.60;26.37;;;3.20;99.90;;;;;;6205371;28;20131;-79
2021/01/06 13:30:14;;;;;;;42.33;23.30;;;3.10;99.90;;;;;;6199004;28;20042;-78
2021/01/06 13:33:31;;;;;;;39.37;22.53;;;3.20;99.90;;;;;;6177390;28;20046;-79
2021/01/06 13:36:40;;;;;;;39.10;22.30;;;3.20;99.90;;;;;;6173938;28;20130;-79
2021/01/06 13:39:46;;;;;;;47.57;24.43;;;3.20;99.90;;;;;;6202947;28;20133;-80
2021/01/06 13:43:17;;;;;;;41.87;26.40;;;3.20;99.90;;;;;;6196004;28;20050;-77
2021/01/06 13:46:49;;;;;;;43.00;24.20;;;3.10;99.90;;;;;;6193833;28;20046;-78
2021/01/06 13:50:03;;;;;;;36.55;21.73;;;3.10;99.90;;;;;;6201373;28;20125;-79
2021/01/06 13:53:32;;;;;;;39.50;23.55;;;3.10;99.90;;;;;;6204047;28;20493;-78
2021/01/06 13:56:44;;;;;;;;;;;3.10;99.90;;;;;;6203487;28;20133;-79
2021/01/06 13:59:52;;;;;;;36.42;20.25;;;3.00;99.90;;;;;;6170939;28;20388;-78
2021/01/06 14:03:02;;;;;;;41.92;20.63;;;2.90;99.90;;;;;;6188307;28;20051;-78
2021/01/06 14:06:23;;;;;;;32.87;19.03;;;2.90;99.90;;;;;;6199910;28;20121;-78
2021/01/06 14:09:50;;;;;;;31.53;19.27;;;2.90;99.90;;;;;;6188747;28;20054;-77
2021/01/06 14:13:05;;;;;;;41.37;22.03;;;2.90;99.90;;;;;;6198330;28;20532;-81
2021/01/06 14:16:34;;;;;;;35.27;19.53;;;2.80;99.90;;;;;;6203173;28;20500;-79
2021/01/06 14:19:55;;;;;;;36.55;21.02;;;2.80;99.90;;;;;;6197905;28;20185;-78
2021/01/06 14:23:16;;;;;;;39.63;20.23;;;2.80;99.90;;;;;;6185376;28;20141;-77
2021/01/06 14:26:38;;;;;;;38.60;20.90;;;2.70;99.90;;;;;;6186142;28;20110;-78
2021/01/06 14:30:01;;;;;;;33.37;18.67;;;2.70;99.90;;;;;;6191346;28;20042;-76
2021/01/06 14:33:18;;;;;;;35.13;18.33;;;2.60;99.90;;;;;;6206829;28;20031;-76
2021/01/06 14:36:43;;;;;;;36.30;19.50;;;2.60;99.90;;;;;;6207782;28;20031;-77
2021/01/06 14:39:48;;;;;;;61.03;26.70;;;2.60;99.90;;;;;;6253337;28;20046;-76
2021/01/06 14:43:00;;;;;;;29.43;17.43;;;2.80;99.90;;;;;;6255483;28;20026;-76
2021/01/06 14:46:25;;;;;;;27.87;15.73;;;2.90;99.90;;;;;;6255662;28;20046;-76
2021/01/06 14:49:32;;;;;;;33.97;16.80;;;2.80;99.90;;;;;;6244664;28;20026;-76
2021/01/06 14:52:55;;;;;;;31.00;17.57;;;2.70;99.90;;;;;;6249501;28;20029;-77
2021/01/06 14:56:15;;;;;;;33.47;16.73;;;2.60;99.90;;;;;;6250722;28;20030;-77
2021/01/06 14:59:26;;;;;;;32.17;16.67;;;2.60;99.90;;;;;;6238574;28;20065;-77
2021/01/06 15:02:32;;;;;;;27.97;16.00;;;2.60;99.90;;;;;;6223222;28;20105;-77
2021/01/06 15:05:38;;;;;;;30.17;19.10;;;2.60;99.90;;;;;;6224623;28;20076;-78
2021/01/06 15:08:58;;;;;;;31.97;19.20;;;2.60;99.90;;;;;;6220810;28;20046;-76
2021/01/06 15:12:04;;;;;;;30.53;17.30;;;2.60;99.90;;;;;;6222385;28;20054;-77
2021/01/06 15:15:09;;;;;;;39.53;18.53;;;2.60;99.90;;;;;;6219064;28;20117;-77
2021/01/06 15:18:16;;;;;;;32.33;19.07;;;2.60;99.90;;;;;;6220691;28;20185;-78
2021/01/06 15:21:24;;;;;;;33.83;17.47;;;2.60;99.90;;;;;;6223477;28;20042;-77
2021/01/06 15:24:26;;;;;;;;;;;2.60;99.90;;;;;;6222130;28;20060;-78
2021/01/06 15:27:35;;;;;;;37.83;18.67;;;2.50;99.90;;;;;;6212129;28;20282;-77
2021/01/06 15:30:44;;;;;;;34.73;18.37;;;2.50;99.90;;;;;;6224080;28;20496;-76
2021/01/06 15:33:55;;;;;;;34.37;17.90;;;2.50;99.90;;;;;;6216593;28;20128;-76
2021/01/06 15:36:57;;;;;;;34.33;19.87;;;2.50;99.90;;;;;;6222627;28;20057;-77
2021/01/06 15:40:01;;;;;;;36.00;17.37;;;2.50;99.90;;;;;;6219527;28;20053;-77
2021/01/06 15:43:10;;;;;;;33.30;17.93;;;2.50;99.90;;;;;;6220729;28;20041;-78
2021/01/06 15:46:17;;;;;;;38.90;19.97;;;2.50;99.90;;;;;;6221783;28;20042;-79
2021/01/06 15:49:25;;;;;;;36.03;17.57;;;2.50;99.90;;;;;;6222000;28;20046;-77
2021/01/06 15:52:27;;;;;;;;;;;2.50;99.90;;;;;;6218333;28;20064;-79
2021/01/06 15:55:28;;;;;;;41.47;18.87;;;2.50;99.90;;;;;;6226288;28;20017;-79
2021/01/06 15:58:29;;;;;;;42.97;19.60;;;2.50;99.90;;;;;;6218628;28;20145;-78
2021/01/06 16:01:31;;;;;;;43.80;21.47;;;2.40;99.90;;;;;;6218742;28;20047;-77
2021/01/06 16:04:37;;;;;;;48.27;22.83;;;2.40;99.90;;;;;;6222332;28;20113;-78
2021/01/06 16:07:38;;;;;;;44.40;22.80;;;2.40;99.90;;;;;;6225718;28;20133;-78
2021/01/06 16:10:39;;;;;;;41.17;23.67;;;2.40;99.90;;;;;;6225233;28;20069;-78